createdAt,value
2022-09-21T00:01:24.243Z,72.90
2022-09-21T00:03:58.565Z,72.94
2022-09-21T00:06:27.252Z,73.24
2022-09-21T00:08:55.605Z,73.58
2022-09-21T00:11:25.105Z,73.59
2022-09-21T00:13:57.784Z,74.14
2022-09-21T00:16:24.495Z,74.18
2022-09-21T00:18:51.209Z,73.56
2022-09-21T00:21:18.286Z,73.92
2022-09-21T00:23:45.538Z,73.47
2022-09-21T00:26:23.541Z,73.93
2022-09-21T00:28:59.310Z,73.97
2022-09-21T00:31:26.932Z,74.33
2022-09-21T00:33:54.077Z,74.31
2022-09-21T00:36:23.438Z,74.97
2022-09-21T00:38:55.234Z,74.91
2022-09-21T00:41:22.043Z,75.04
2022-09-21T00:44:08.611Z,75.29
2022-09-21T00:46:37.457Z,75.47
2022-09-21T00:49:04.022Z,75.93
2022-09-21T00:51:30.826Z,76.36
2022-09-21T00:54:04.832Z,76.67
2022-09-21T00:56:31.378Z,77.58
2022-09-21T00:58:58.331Z,78.49
2022-09-21T01:01:24.949Z,78.90
2022-09-21T01:03:53.593Z,78.66
2022-09-21T01:06:21.475Z,78.86
2022-09-21T01:08:54.028Z,79.03
2022-09-21T01:11:52.933Z,79.19
2022-09-21T01:14:30.930Z,78.62
2022-09-21T01:17:07.405Z,78.61
2022-09-21T01:19:55.878Z,78.65
2022-09-21T01:22:42.001Z,78.33
2022-09-21T01:25:41.523Z,78.46
2022-09-21T01:28:26.461Z,78.33
2022-09-21T01:30:55.640Z,78.09
2022-09-21T01:33:30.332Z,77.87
2022-09-21T01:36:01.871Z,78.44
2022-09-21T01:38:35.470Z,78.47
2022-09-21T01:41:06.835Z,78.17
2022-09-21T01:43:43.807Z,77.99
2022-09-21T01:46:16.016Z,78.35
2022-09-21T01:48:47.530Z,78.08
2022-09-21T01:51:18.548Z,78.18
2022-09-21T01:53:57.045Z,78.05
2022-09-21T01:56:27.806Z,78.41
2022-09-21T01:59:03.578Z,78.43
2022-09-21T02:01:35.215Z,79.08
2022-09-21T02:04:05.791Z,78.42
2022-09-21T02:06:32.808Z,77.75
2022-09-21T02:08:59.363Z,76.61
2022-09-21T02:11:26.540Z,76.43
2022-09-21T02:13:55.106Z,76.08
2022-09-21T02:16:36.296Z,76.49
2022-09-21T02:19:22.090Z,76.85
2022-09-21T02:22:10.126Z,76.55
2022-09-21T02:24:47.241Z,76.91
2022-09-21T02:27:35.350Z,77.26
2022-09-21T02:30:08.955Z,79.65
2022-09-21T02:32:58.709Z,81.03
2022-09-21T02:35:40.465Z,81.94
2022-09-21T02:38:15.710Z,82.06
2022-09-21T02:41:15.377Z,82.16
2022-09-21T02:43:51.945Z,82.02
2022-09-21T02:46:25.536Z,81.30
2022-09-21T02:49:00.799Z,80.60
2022-09-21T02:51:38.158Z,79.33
2022-09-21T02:54:08.438Z,78.48
2022-09-21T02:56:36.724Z,78.79
2022-09-21T02:59:05.711Z,78.83
2022-09-21T03:01:33.478Z,78.96
2022-09-21T03:04:01.197Z,77.28
2022-09-21T03:06:27.816Z,76.56
2022-09-21T03:08:54.341Z,76.81
2022-09-21T03:11:20.947Z,76.97
2022-09-21T03:13:47.470Z,76.75
2022-09-21T03:16:14.316Z,77.36
2022-09-21T03:18:42.177Z,77.52
2022-09-21T03:21:08.832Z,77.68
2022-09-21T03:23:35.610Z,77.20
2022-09-21T03:26:02.620Z,78.49
2022-09-21T03:28:29.122Z,79.55
2022-09-21T03:30:55.783Z,79.11
2022-09-21T03:33:22.412Z,78.56
2022-09-21T03:35:49.511Z,77.88
2022-09-21T03:38:16.926Z,78.77
2022-09-21T03:40:47.370Z,78.38
2022-09-21T03:43:14.263Z,78.24
2022-09-21T03:45:42.080Z,78.45
2022-09-21T03:48:10.538Z,79.00
2022-09-21T03:50:38.285Z,79.33
2022-09-21T03:53:05.452Z,79.36
2022-09-21T03:55:33.194Z,79.95
2022-09-21T03:57:59.819Z,80.03
2022-09-21T04:00:27.366Z,79.10
2022-09-21T04:02:53.920Z,79.61
2022-09-21T04:05:20.929Z,80.36
2022-09-21T04:07:47.739Z,79.72
2022-09-21T04:10:17.700Z,79.70
2022-09-21T04:12:45.426Z,79.47
2022-09-21T04:15:14.142Z,79.72
2022-09-21T04:17:41.363Z,79.94
2022-09-21T04:20:09.221Z,79.70
2022-09-21T04:22:41.105Z,79.89
2022-09-21T04:25:10.853Z,79.23
2022-09-21T04:27:37.387Z,78.50
2022-09-21T04:30:05.093Z,78.60
2022-09-21T04:32:31.790Z,77.95
2022-09-21T04:34:58.314Z,78.36
2022-09-21T04:37:24.879Z,78.53
2022-09-21T04:39:51.509Z,79.03
2022-09-21T04:42:18.086Z,79.43
2022-09-21T04:44:44.963Z,80.51
2022-09-21T04:47:11.937Z,81.03
2022-09-21T04:49:38.674Z,80.58
2022-09-21T04:52:06.043Z,81.25
2022-09-21T04:54:32.589Z,80.65
2022-09-21T04:56:59.085Z,80.21
2022-09-21T04:59:25.649Z,80.71
2022-09-21T05:01:52.204Z,81.32
2022-09-21T05:04:18.764Z,82.66
2022-09-21T05:06:45.290Z,82.89
2022-09-21T05:09:30.072Z,83.03
2022-09-21T05:11:56.609Z,81.61
2022-09-21T05:14:23.144Z,81.55
2022-09-21T05:16:49.784Z,82.19
2022-09-21T05:19:17.361Z,81.59
2022-09-21T05:21:43.932Z,81.92
2022-09-21T05:24:10.552Z,81.34
2022-09-21T05:26:37.814Z,81.86
2022-09-21T05:29:05.141Z,82.24
2022-09-21T05:31:56.482Z,81.33
2022-09-21T05:34:36.390Z,79.99
2022-09-21T05:37:21.339Z,79.50
2022-09-21T05:39:48.172Z,79.67
2022-09-21T05:42:14.937Z,80.22
2022-09-21T05:44:41.821Z,80.98
2022-09-21T05:47:33.062Z,80.23
2022-09-21T05:49:59.496Z,82.14
2022-09-21T05:52:38.454Z,83.53
2022-09-21T05:55:34.504Z,84.31
2022-09-21T05:58:31.913Z,83.02
2022-09-21T06:01:19.725Z,83.34
2022-09-21T06:03:48.840Z,83.42
2022-09-21T06:06:20.635Z,84.64
2022-09-21T06:08:47.175Z,84.30
2022-09-21T06:11:14.202Z,84.91
2022-09-21T06:13:43.823Z,85.18
2022-09-21T06:16:10.505Z,86.40
2022-09-21T06:18:41.222Z,88.60
2022-09-21T06:21:08.656Z,90.88
2022-09-21T06:23:36.048Z,92.05
2022-09-21T06:26:02.718Z,93.19
2022-09-21T06:28:29.849Z,93.59
2022-09-21T06:30:58.147Z,94.66
2022-09-21T06:33:25.140Z,95.30
2022-09-21T06:35:54.118Z,95.69
2022-09-21T06:38:21.061Z,95.61
2022-09-21T06:40:47.819Z,96.28
2022-09-21T06:43:14.355Z,97.30
2022-09-21T06:45:41.090Z,97.28
2022-09-21T06:48:07.734Z,97.19
2022-09-21T06:50:34.256Z,97.06
2022-09-21T06:53:01.332Z,96.64
2022-09-21T06:55:28.209Z,96.76
2022-09-21T06:58:03.665Z,96.60
2022-09-21T07:00:34.611Z,96.33
2022-09-21T07:03:01.361Z,96.41
2022-09-21T07:05:28.219Z,96.48
2022-09-21T07:07:58.871Z,96.29
2022-09-21T07:10:26.320Z,94.43
2022-09-21T07:12:53.243Z,93.31
2022-09-21T07:15:20.528Z,92.10
2022-09-21T07:17:51.677Z,90.55
2022-09-21T07:20:18.854Z,89.32
2022-09-21T07:22:45.692Z,86.95
2022-09-21T07:25:12.515Z,85.43
2022-09-21T07:27:39.425Z,84.91
2022-09-21T07:30:07.270Z,82.20
2022-09-21T07:32:34.288Z,80.76
2022-09-21T07:35:00.933Z,79.13
2022-09-21T07:37:28.967Z,76.57
2022-09-21T07:39:55.532Z,74.20
2022-09-21T07:42:22.960Z,72.05
2022-09-21T07:44:50.937Z,69.86
2022-09-21T07:47:17.688Z,68.60
2022-09-21T07:49:44.539Z,67.60
2022-09-21T07:52:11.433Z,67.12
2022-09-21T07:54:38.192Z,64.48
2022-09-21T07:57:23.727Z,63.24
2022-09-21T07:59:50.699Z,61.15
2022-09-21T08:02:17.320Z,60.64
2022-09-21T08:04:43.903Z,58.43
2022-09-21T08:07:10.466Z,56.33
2022-09-21T08:09:37.197Z,55.16
2022-09-21T08:12:06.762Z,55.07
2022-09-21T08:14:34.637Z,53.74
2022-09-21T08:17:01.794Z,53.17
2022-09-21T08:19:28.293Z,51.66
2022-09-21T08:21:57.566Z,50.64
2022-09-21T08:24:25.078Z,49.90
2022-09-21T08:26:52.283Z,49.83
2022-09-21T08:29:19.194Z,48.76
2022-09-21T08:31:46.855Z,48.45
2022-09-21T08:34:14.279Z,47.62
2022-09-21T08:36:41.097Z,47.03
2022-09-21T08:39:08.404Z,45.47
2022-09-21T08:41:57.527Z,45.07
2022-09-21T08:44:29.741Z,43.97
2022-09-21T08:47:10.088Z,44.33
2022-09-21T08:49:40.467Z,43.78
2022-09-21T08:52:16.242Z,42.51
2022-09-21T08:54:56.773Z,42.88
2022-09-21T08:57:28.960Z,42.39
2022-09-21T08:59:55.502Z,41.82
2022-09-21T09:02:43.950Z,41.83
2022-09-21T09:05:48.622Z,41.53
2022-09-21T09:08:24.320Z,40.54
2022-09-21T09:11:27.972Z,40.38
2022-09-21T09:14:26.510Z,40.05
2022-09-21T09:17:17.076Z,39.10
2022-09-21T09:20:10.696Z,38.74
2022-09-21T09:22:43.257Z,39.11
2022-09-21T09:25:35.010Z,38.90
2022-09-21T09:28:15.843Z,39.09
2022-09-21T09:30:43.341Z,38.31
2022-09-21T09:33:36.027Z,39.57
2022-09-21T09:36:05.877Z,38.13
2022-09-21T09:38:36.707Z,37.35
2022-09-21T09:41:29.181Z,37.25
2022-09-21T09:44:14.389Z,35.86
2022-09-21T09:46:58.508Z,36.79
2022-09-21T09:49:50.926Z,35.95
2022-09-21T09:52:17.587Z,36.91
2022-09-21T09:54:44.623Z,36.50
2022-09-21T09:57:12.824Z,35.56
2022-09-21T09:59:55.389Z,34.93
2022-09-21T10:02:25.162Z,35.67
2022-09-21T10:05:03.850Z,36.25
2022-09-21T10:07:37.492Z,36.04
2022-09-21T10:10:27.042Z,36.61
2022-09-21T10:12:53.758Z,34.76
2022-09-21T10:15:24.001Z,34.00
2022-09-21T10:18:02.064Z,33.05
2022-09-21T10:20:30.925Z,32.44
2022-09-21T10:23:00.874Z,33.66
2022-09-21T10:25:27.674Z,34.60
2022-09-21T10:27:56.026Z,33.53
2022-09-21T10:30:35.372Z,33.25
2022-09-21T10:33:02.140Z,32.34
2022-09-21T10:35:29.750Z,33.24
2022-09-21T10:38:11.645Z,32.41
2022-09-21T10:40:39.942Z,34.96
2022-09-21T10:43:24.115Z,34.51
2022-09-21T10:45:56.934Z,33.68
2022-09-21T10:48:27.094Z,33.31
2022-09-21T10:50:56.746Z,33.23
2022-09-21T10:53:30.441Z,32.35
2022-09-21T10:56:18.976Z,30.83
2022-09-21T10:59:20.233Z,31.88
2022-09-21T11:01:49.599Z,33.14
2022-09-21T11:04:24.913Z,32.25
2022-09-21T11:07:02.357Z,30.97
2022-09-21T11:09:41.290Z,30.14
2022-09-21T11:12:34.070Z,29.79
2022-09-21T11:15:30.388Z,29.94
2022-09-21T11:18:16.836Z,28.19
2022-09-21T11:20:52.979Z,27.57
2022-09-21T11:23:41.252Z,31.52
2022-09-21T11:26:13.279Z,30.39
2022-09-21T11:28:49.009Z,29.96
2022-09-21T11:31:28.371Z,29.25
2022-09-21T11:34:26.140Z,28.42
2022-09-21T11:37:00.908Z,28.44
2022-09-21T11:40:01.731Z,27.78
2022-09-21T11:42:56.871Z,29.22
2022-09-21T11:45:50.765Z,27.72
2022-09-21T11:48:37.413Z,31.43
2022-09-21T11:51:25.814Z,30.49
2022-09-21T11:54:15.212Z,30.71
2022-09-21T11:57:08.575Z,29.14
2022-09-21T12:00:04.200Z,28.46
2022-09-21T12:02:52.709Z,28.03
2022-09-21T12:05:37.637Z,28.70
2022-09-21T12:08:13.224Z,28.85
2022-09-21T12:10:44.948Z,27.69
2022-09-21T12:13:19.135Z,28.26
2022-09-21T12:15:57.583Z,29.87
2022-09-21T12:18:32.638Z,29.75
2022-09-21T12:21:08.204Z,27.77
2022-09-21T12:23:37.560Z,28.38
2022-09-21T12:26:06.382Z,27.48
2022-09-21T12:28:41.523Z,25.71
2022-09-21T12:31:45.054Z,25.98
2022-09-21T12:34:18.991Z,27.59
2022-09-21T12:37:08.540Z,29.52
2022-09-21T12:40:07.140Z,31.08
2022-09-21T12:42:38.701Z,29.51
2022-09-21T12:45:25.491Z,27.27
2022-09-21T12:48:04.433Z,27.50
2022-09-21T12:50:39.353Z,27.13
2022-09-21T12:53:07.945Z,26.79
2022-09-21T12:55:35.596Z,27.50
2022-09-21T12:58:15.528Z,26.65
2022-09-21T13:01:06.080Z,28.03
2022-09-21T13:03:53.424Z,26.34
2022-09-21T13:06:42.851Z,26.91
2022-09-21T13:09:15.189Z,26.49
2022-09-21T13:12:07.964Z,25.66
2022-09-21T13:14:41.606Z,25.07
2022-09-21T13:17:22.867Z,24.46
2022-09-21T13:20:26.446Z,23.81
2022-09-21T13:23:02.797Z,27.39
2022-09-21T13:25:32.653Z,25.63
2022-09-21T13:28:13.130Z,25.57
2022-09-21T13:30:48.156Z,25.01
2022-09-21T13:33:20.489Z,24.63
2022-09-21T13:36:08.060Z,24.76
2022-09-21T13:38:47.988Z,26.76
2022-09-21T13:41:17.554Z,24.85
2022-09-21T13:43:54.144Z,27.45
2022-09-21T13:46:48.677Z,27.53
2022-09-21T13:49:15.511Z,26.79
2022-09-21T13:52:10.154Z,25.57
2022-09-21T13:54:48.316Z,25.42
2022-09-21T13:57:27.984Z,25.35
2022-09-21T14:00:20.258Z,25.81
2022-09-21T14:03:00.775Z,26.68
2022-09-21T14:05:39.904Z,26.33
2022-09-21T14:08:15.245Z,27.04
2022-09-21T14:10:58.109Z,25.75
2022-09-21T14:13:38.229Z,25.07
2022-09-21T14:16:29.538Z,25.90
2022-09-21T14:18:56.593Z,28.44
2022-09-21T14:21:23.358Z,26.52
2022-09-21T14:24:08.145Z,26.83
2022-09-21T14:26:40.986Z,27.45
2022-09-21T14:29:41.666Z,27.28
2022-09-21T14:32:16.294Z,26.40
2022-09-21T14:34:46.937Z,26.07
2022-09-21T14:37:27.669Z,26.07
2022-09-21T14:39:54.756Z,25.01
2022-09-21T14:42:28.916Z,26.87
2022-09-21T14:45:01.380Z,26.38
2022-09-21T14:47:52.867Z,25.90
2022-09-21T14:50:33.218Z,27.22
2022-09-21T14:53:28.221Z,26.86
2022-09-21T14:56:11.889Z,26.03
2022-09-21T14:59:17.333Z,25.94
2022-09-21T15:02:21.828Z,24.98
2022-09-21T15:05:07.376Z,24.50
2022-09-21T15:08:06.082Z,27.42
2022-09-21T15:10:57.307Z,27.11
2022-09-21T15:13:47.076Z,27.45
2022-09-21T15:16:36.369Z,28.88
2022-09-21T15:19:14.590Z,29.41
2022-09-21T15:21:49.521Z,31.63
2022-09-21T15:24:24.951Z,29.52
2022-09-21T15:26:54.866Z,28.55
2022-09-21T15:29:31.457Z,29.65
2022-09-21T15:31:59.756Z,29.51
2022-09-21T15:34:26.808Z,30.50
2022-09-21T15:36:53.473Z,31.77
2022-09-21T15:39:24.580Z,34.14
2022-09-21T15:42:08.108Z,34.12
2022-09-21T15:44:39.539Z,33.84
2022-09-21T15:47:12.938Z,33.42
2022-09-21T15:49:40.774Z,33.30
2022-09-21T15:52:40.484Z,33.13
2022-09-21T15:55:25.353Z,33.67
2022-09-21T15:57:57.975Z,34.01
2022-09-21T16:00:35.220Z,33.58
2022-09-21T16:03:15.718Z,35.24
2022-09-21T16:05:53.733Z,35.38
2022-09-21T16:08:36.593Z,35.66
2022-09-21T16:11:35.794Z,36.09
2022-09-21T16:14:29.433Z,36.43
2022-09-21T16:17:17.955Z,36.52
2022-09-21T16:19:56.766Z,36.27
2022-09-21T16:22:44.873Z,36.59
2022-09-21T16:25:24.706Z,36.09
2022-09-21T16:27:59.863Z,36.57
2022-09-21T16:30:44.129Z,36.46
2022-09-21T16:33:42.222Z,37.21
2022-09-21T16:36:17.661Z,37.59
2022-09-21T16:38:45.037Z,37.89
2022-09-21T16:41:11.614Z,39.00
2022-09-21T16:43:40.425Z,39.83
2022-09-21T16:46:08.246Z,40.90
2022-09-21T16:49:01.543Z,40.58
2022-09-21T16:51:28.612Z,40.53
2022-09-21T16:53:56.533Z,40.73
2022-09-21T16:56:23.145Z,40.46
2022-09-21T16:58:51.055Z,40.47
2022-09-21T17:01:22.133Z,40.46
2022-09-21T17:03:48.754Z,39.84
2022-09-21T17:06:20.198Z,40.02
2022-09-21T17:08:49.897Z,40.15
2022-09-21T17:11:21.995Z,40.15
2022-09-21T17:13:50.108Z,40.23
2022-09-21T17:16:18.968Z,39.59
2022-09-21T17:18:46.843Z,40.12
2022-09-21T17:21:14.269Z,39.78
2022-09-21T17:23:41.980Z,38.96
2022-09-21T17:26:21.951Z,38.81
2022-09-21T17:28:48.892Z,39.37
2022-09-21T17:31:16.704Z,38.87
2022-09-21T17:33:51.899Z,39.48
2022-09-21T17:36:18.976Z,39.71
2022-09-21T17:38:45.558Z,39.75
2022-09-21T17:45:01.639Z,40.22
2022-09-21T17:47:30.860Z,40.56
2022-09-21T17:50:13.102Z,43.50
2022-09-21T17:52:59.777Z,41.96
2022-09-21T17:55:26.790Z,41.66
2022-09-21T17:58:05.866Z,41.70
2022-09-21T18:00:50.634Z,41.81
2022-09-21T18:03:28.807Z,41.94
2022-09-21T18:06:00.827Z,42.44
2022-09-21T18:08:29.250Z,43.03
2022-09-21T18:11:29.454Z,42.98
2022-09-21T18:14:05.596Z,43.07
2022-09-21T18:16:48.779Z,43.46
2022-09-21T18:19:18.153Z,44.59
2022-09-21T18:21:47.587Z,43.72
2022-09-21T18:24:20.147Z,43.48
2022-09-21T18:26:49.119Z,44.79
2022-09-21T18:29:46.527Z,44.96
2022-09-21T18:32:49.600Z,45.57
2022-09-21T18:35:31.677Z,45.99
2022-09-21T18:38:04.365Z,46.23
2022-09-21T18:41:03.360Z,46.80
2022-09-21T18:43:41.304Z,46.63
2022-09-21T18:46:18.238Z,47.12
2022-09-21T18:49:00.182Z,47.40
2022-09-21T18:51:55.228Z,47.68
2022-09-21T18:54:30.511Z,47.88
2022-09-21T18:56:58.011Z,47.90
2022-09-21T18:59:29.600Z,48.20
2022-09-21T19:01:59.489Z,48.50
2022-09-21T19:04:28.124Z,48.64
2022-09-21T19:07:10.896Z,48.99
2022-09-21T19:10:15.458Z,49.13
2022-09-21T19:13:16.194Z,49.14
2022-09-21T19:16:11.621Z,49.84
2022-09-21T19:19:10.377Z,49.46
2022-09-21T19:21:40.310Z,49.81
2022-09-21T19:24:13.404Z,50.15
2022-09-21T19:27:04.722Z,50.44
2022-09-21T19:29:44.969Z,50.70
2022-09-21T19:32:17.985Z,51.14
2022-09-21T19:34:44.842Z,51.34
2022-09-21T19:37:11.632Z,51.42
2022-09-21T19:39:38.793Z,51.42
2022-09-21T19:42:17.259Z,51.83
2022-09-21T19:45:06.606Z,52.30
2022-09-21T19:47:53.547Z,52.51
2022-09-21T19:50:25.931Z,52.80
2022-09-21T19:53:13.110Z,52.72
2022-09-21T19:56:01.210Z,53.08
2022-09-21T19:58:46.721Z,52.93
2022-09-21T20:01:17.938Z,53.27
2022-09-21T20:03:46.418Z,53.26
2022-09-21T20:06:27.136Z,53.17
2022-09-21T20:09:12.272Z,53.29
2022-09-21T20:12:06.703Z,53.45
2022-09-21T20:14:42.546Z,53.72
2022-09-21T20:17:38.650Z,53.86
2022-09-21T20:20:30.528Z,54.25
2022-09-21T20:22:58.585Z,54.13
2022-09-21T20:25:31.373Z,54.27
2022-09-21T20:27:59.196Z,54.65
2022-09-21T20:30:28.668Z,54.76
2022-09-21T20:33:07.642Z,54.74
2022-09-21T20:35:34.845Z,55.45
2022-09-21T20:38:03.012Z,55.82
2022-09-21T20:40:31.179Z,55.61
2022-09-21T20:43:03.800Z,55.57
2022-09-21T20:45:30.719Z,55.71
2022-09-21T20:48:12.922Z,55.84
2022-09-21T20:50:48.909Z,55.50
2022-09-21T20:53:15.576Z,55.34
2022-09-21T20:55:43.991Z,55.53
2022-09-21T20:58:13.600Z,55.46
2022-09-21T21:00:40.224Z,55.15
2022-09-21T21:03:06.733Z,55.08
2022-09-21T21:05:33.308Z,55.16
2022-09-21T21:07:59.892Z,55.30
2022-09-21T21:10:26.438Z,55.34
2022-09-21T21:12:52.961Z,55.18
2022-09-21T21:15:19.521Z,55.51
2022-09-21T21:17:47.345Z,55.01
2022-09-21T21:20:16.312Z,54.91
2022-09-21T21:22:44.579Z,55.10
2022-09-21T21:25:11.561Z,54.67
2022-09-21T21:30:24.799Z,54.62
2022-09-21T21:32:53.159Z,54.41
2022-09-21T21:35:20.222Z,54.39
2022-09-21T21:37:46.716Z,55.11
2022-09-21T21:40:13.278Z,54.78
2022-09-21T21:42:39.847Z,54.78
2022-09-21T21:45:06.906Z,54.84
2022-09-21T21:47:41.361Z,55.00
2022-09-21T21:50:09.292Z,55.49
2022-09-21T21:52:35.821Z,55.57
2022-09-21T21:55:02.582Z,55.22
2022-09-21T21:57:29.195Z,55.52
2022-09-21T21:59:55.703Z,55.12
2022-09-21T22:02:22.357Z,55.03
2022-09-21T22:04:48.935Z,55.38
2022-09-21T22:07:15.452Z,55.61
2022-09-21T22:09:41.961Z,56.19
2022-09-21T22:12:09.113Z,56.33
2022-09-21T22:14:35.611Z,55.90
2022-09-21T22:17:02.247Z,56.00
2022-09-21T22:19:28.814Z,56.79
2022-09-21T22:21:55.345Z,56.99
2022-09-21T22:24:22.323Z,57.30
2022-09-21T22:26:48.948Z,57.26
2022-09-21T22:29:17.107Z,57.17
2022-09-21T22:31:46.280Z,56.49
2022-09-21T22:34:14.621Z,56.38
2022-09-21T22:36:43.544Z,56.98
2022-09-21T22:39:10.890Z,57.53
2022-09-21T22:41:39.585Z,57.02
2022-09-21T22:44:07.241Z,58.09
2022-09-21T22:46:34.525Z,58.81
2022-09-21T22:49:01.316Z,59.55
2022-09-21T22:51:29.136Z,60.08
2022-09-21T22:53:56.102Z,60.09
2022-09-21T22:56:25.631Z,60.19
2022-09-21T22:58:55.165Z,60.14
2022-09-21T23:01:25.536Z,60.36
2022-09-21T23:03:55.805Z,60.38
2022-09-21T23:06:26.505Z,61.35
2022-09-21T23:08:54.730Z,61.62
2022-09-21T23:11:24.105Z,61.73
2022-09-21T23:13:50.669Z,61.64
2022-09-21T23:16:19.153Z,61.65
2022-09-21T23:18:48.390Z,61.55
2022-09-21T23:21:18.020Z,61.55
2022-09-21T23:23:45.438Z,61.79
2022-09-21T23:26:18.099Z,62.16
2022-09-21T23:28:46.376Z,62.42
2022-09-21T23:31:15.086Z,62.83
2022-09-21T23:33:47.527Z,62.94
2022-09-21T23:36:16.483Z,63.08
2022-09-21T23:38:44.045Z,63.91
2022-09-21T23:41:14.074Z,63.49
2022-09-21T23:43:42.391Z,63.35
2022-09-21T23:46:11.676Z,62.77
2022-09-21T23:48:38.949Z,62.70
2022-09-21T23:51:06.729Z,62.22
2022-09-21T23:53:33.766Z,62.93
2022-09-21T23:56:00.592Z,63.71
2022-09-21T23:58:27.820Z,63.70
